createdAt,value
2018-09-15T00:01:19.029Z,6.80
2018-09-15T00:03:46.211Z,6.83
2018-09-15T00:06:13.362Z,6.87
2018-09-15T00:08:40.612Z,7.53
2018-09-15T00:11:07.729Z,7.83
2018-09-15T00:13:34.946Z,7.47
2018-09-15T00:16:02.221Z,7.03
2018-09-15T00:18:29.317Z,7.07
2018-09-15T00:20:56.477Z,6.80
2018-09-15T00:23:25.323Z,6.80
2018-09-15T00:25:52.473Z,6.90
2018-09-15T00:28:19.645Z,6.50
2018-09-15T00:30:46.837Z,6.40
2018-09-15T00:33:13.968Z,6.77
2018-09-15T00:35:41.123Z,6.67
2018-09-15T00:38:08.265Z,6.93
2018-09-15T00:40:35.477Z,6.60
2018-09-15T00:43:02.594Z,7.20
2018-09-15T00:45:29.793Z,7.27
2018-09-15T00:47:57.522Z,6.80
2018-09-15T00:50:24.691Z,6.90
2018-09-15T00:52:51.823Z,6.70
2018-09-15T00:55:19.128Z,6.93
2018-09-15T00:57:46.329Z,6.83
2018-09-15T01:00:13.462Z,7.13
2018-09-15T01:02:40.614Z,6.80
2018-09-15T01:05:07.764Z,7.00
2018-09-15T01:07:34.955Z,7.57
2018-09-15T01:10:02.139Z,6.50
2018-09-15T01:12:29.366Z,6.87
2018-09-15T01:14:56.519Z,6.40
2018-09-15T01:17:23.689Z,6.80
2018-09-15T01:19:50.865Z,6.50
2018-09-15T01:22:18.202Z,6.07
2018-09-15T01:24:45.739Z,6.60
2018-09-15T01:27:13.194Z,5.77
2018-09-15T01:29:40.422Z,5.97
2018-09-15T01:32:07.568Z,6.43
2018-09-15T01:34:34.699Z,6.47
2018-09-15T01:37:01.877Z,6.20
2018-09-15T01:39:29.089Z,5.73
2018-09-15T01:41:56.242Z,6.27
2018-09-15T01:44:23.786Z,6.80
2018-09-15T01:46:50.933Z,6.30
2018-09-15T01:49:18.120Z,6.27
2018-09-15T01:51:45.233Z,6.33
2018-09-15T01:54:12.391Z,6.53
2018-09-15T01:56:39.636Z,6.20
2018-09-15T01:59:06.853Z,6.50
2018-09-15T02:01:34.026Z,6.27
2018-09-15T02:04:01.226Z,6.03
2018-09-15T02:06:28.394Z,6.23
2018-09-15T02:08:55.551Z,6.57
2018-09-15T02:11:22.705Z,5.97
2018-09-15T02:13:49.865Z,5.80
2018-09-15T02:16:17.014Z,6.30
2018-09-15T02:18:44.213Z,6.20
2018-09-15T02:21:11.386Z,5.67
2018-09-15T02:23:38.534Z,5.90
2018-09-15T02:26:05.690Z,5.97
2018-09-15T02:28:32.812Z,5.57
2018-09-15T02:31:00.013Z,6.47
2018-09-15T02:33:27.133Z,6.43
2018-09-15T02:35:54.275Z,5.90
2018-09-15T02:38:21.387Z,6.50
2018-09-15T02:40:48.573Z,5.30
2018-09-15T02:43:15.734Z,5.97
2018-09-15T02:45:42.911Z,6.03
2018-09-15T02:48:10.063Z,5.90
2018-09-15T02:50:37.266Z,5.70
2018-09-15T02:53:04.402Z,5.87
2018-09-15T02:55:31.587Z,5.30
2018-09-15T02:57:58.763Z,5.67
2018-09-15T03:00:25.924Z,5.67
2018-09-15T03:02:53.048Z,5.93
2018-09-15T03:05:20.173Z,5.80
2018-09-15T03:07:47.334Z,5.87
2018-09-15T03:10:14.498Z,6.93
2018-09-15T03:12:41.651Z,5.60
2018-09-15T03:15:08.749Z,5.63
2018-09-15T03:17:35.893Z,5.70
2018-09-15T03:20:03.450Z,6.80
2018-09-15T03:22:30.642Z,6.40
2018-09-15T03:24:57.792Z,6.50
2018-09-15T03:27:25.121Z,6.10
2018-09-15T03:29:52.245Z,5.70
2018-09-15T03:32:19.420Z,6.00
2018-09-15T03:34:46.562Z,5.90
2018-09-15T03:37:13.728Z,6.50
2018-09-15T03:39:40.919Z,5.83
2018-09-15T03:42:08.089Z,5.67
2018-09-15T03:44:35.251Z,5.77
2018-09-15T03:47:02.453Z,5.40
2018-09-15T03:49:29.640Z,5.43
2018-09-15T03:51:56.908Z,5.43
2018-09-15T03:54:24.028Z,5.97
2018-09-15T03:56:51.157Z,5.03
2018-09-15T03:59:18.299Z,5.43
2018-09-15T04:01:46.066Z,5.47
2018-09-15T04:04:13.222Z,5.07
2018-09-15T04:06:40.545Z,5.00
2018-09-15T04:09:09.703Z,5.77
2018-09-15T04:11:37.010Z,5.20
2018-09-15T04:14:04.578Z,4.97
2018-09-15T04:16:31.734Z,4.77
2018-09-15T04:18:58.958Z,5.47
2018-09-15T04:21:26.101Z,5.50
2018-09-15T04:23:53.235Z,5.80
2018-09-15T04:26:20.342Z,5.77
2018-09-15T04:28:47.482Z,5.23
2018-09-15T04:31:14.631Z,5.63
2018-09-15T04:33:41.885Z,5.60
2018-09-15T04:36:09.061Z,5.97
2018-09-15T04:38:36.287Z,5.53
2018-09-15T04:41:03.523Z,5.20
2018-09-15T04:43:30.610Z,4.90
2018-09-15T04:45:57.765Z,5.80
2018-09-15T04:48:24.880Z,5.53
2018-09-15T04:50:51.537Z,5.70
2018-09-15T04:53:18.772Z,5.60
2018-09-15T04:55:45.996Z,5.93
2018-09-15T04:58:13.173Z,6.10
2018-09-15T05:00:40.364Z,5.53
2018-09-15T05:03:07.550Z,5.37
2018-09-15T05:05:34.816Z,5.47
2018-09-15T05:08:01.947Z,4.93
2018-09-15T05:10:29.092Z,5.30
2018-09-15T05:12:56.314Z,5.20
2018-09-15T05:15:23.556Z,5.27
2018-09-15T05:17:51.487Z,4.73
2018-09-15T05:20:18.762Z,4.93
2018-09-15T05:22:46.001Z,5.00
2018-09-15T05:25:13.152Z,6.40
2018-09-15T05:27:40.326Z,5.57
2018-09-15T05:30:07.863Z,5.87
2018-09-15T05:32:35.952Z,5.50
2018-09-15T05:35:03.170Z,5.80
2018-09-15T05:37:30.350Z,6.50
2018-09-15T05:39:57.504Z,6.40
2018-09-15T05:42:24.690Z,5.50
2018-09-15T05:44:51.886Z,5.67
2018-09-15T05:47:19.048Z,5.20
2018-09-15T05:49:46.639Z,5.30
2018-09-15T05:52:13.746Z,5.23
2018-09-15T05:54:40.941Z,5.00
2018-09-15T05:57:08.425Z,5.13
2018-09-15T05:59:35.573Z,5.07
2018-09-15T06:02:02.730Z,5.20
2018-09-15T06:04:29.900Z,5.17
2018-09-15T06:06:57.322Z,5.80
2018-09-15T06:09:24.470Z,6.00
2018-09-15T06:11:51.602Z,6.20
2018-09-15T06:14:19.219Z,5.93
2018-09-15T06:16:46.341Z,5.83
2018-09-15T06:19:13.549Z,11.03
2018-09-15T06:21:40.670Z,5.80
2018-09-15T06:24:07.892Z,6.07
2018-09-15T06:26:35.249Z,6.30
2018-09-15T06:29:02.514Z,5.87
2018-09-15T06:31:29.758Z,5.33
2018-09-15T06:33:57.080Z,6.27
2018-09-15T06:36:24.365Z,5.73
2018-09-15T06:38:51.512Z,5.10
2018-09-15T06:41:18.634Z,5.37
2018-09-15T06:43:45.837Z,6.37
2018-09-15T06:46:12.969Z,6.77
2018-09-15T06:48:40.115Z,5.90
2018-09-15T06:51:08.141Z,6.27
2018-09-15T06:53:35.496Z,8.53
2018-09-15T06:56:02.845Z,7.23
2018-09-15T06:58:30.051Z,8.53
2018-09-15T07:00:57.745Z,9.00
2018-09-15T07:03:24.898Z,8.50
2018-09-15T07:05:52.089Z,9.80
2018-09-15T07:08:19.238Z,8.83
2018-09-15T07:10:46.561Z,9.00
2018-09-15T07:13:13.791Z,9.20
2018-09-15T07:15:40.951Z,9.10
2018-09-15T07:18:08.462Z,8.43
2018-09-15T07:20:36.459Z,8.67
2018-09-15T07:23:04.619Z,8.23
2018-09-15T07:25:31.874Z,8.40
2018-09-15T07:27:59.025Z,9.50
2018-09-15T07:30:26.159Z,9.20
2018-09-15T07:32:53.346Z,7.50
2018-09-15T07:35:20.513Z,8.57
2018-09-15T07:37:47.751Z,7.70
2018-09-15T07:40:15.967Z,8.27
2018-09-15T07:42:43.190Z,8.80
2018-09-15T07:45:10.586Z,9.03
2018-09-15T07:47:37.831Z,8.33
2018-09-15T07:50:05.076Z,9.00
2018-09-15T07:52:32.229Z,8.57
2018-09-15T07:54:59.402Z,7.87
2018-09-15T07:57:26.925Z,8.40
2018-09-15T07:59:54.959Z,7.80
2018-09-15T08:02:22.933Z,8.20
2018-09-15T08:04:51.158Z,8.23
2018-09-15T08:07:18.328Z,7.57
2018-09-15T08:09:46.125Z,7.97
2018-09-15T08:12:13.629Z,8.40
2018-09-15T08:14:41.079Z,8.53
2018-09-15T08:17:08.255Z,8.40
2018-09-15T08:19:35.401Z,8.87
2018-09-15T08:22:02.555Z,8.90
2018-09-15T08:24:29.991Z,8.33
2018-09-15T08:26:57.230Z,7.33
2018-09-15T08:29:24.451Z,7.50
2018-09-15T08:31:51.753Z,8.50
2018-09-15T08:34:18.881Z,7.60
2018-09-15T08:36:46.122Z,8.17
2018-09-15T08:39:13.385Z,7.57
2018-09-15T08:41:40.597Z,7.23
2018-09-15T08:44:07.810Z,6.93
2018-09-15T08:46:35.090Z,6.50
2018-09-15T08:49:02.361Z,6.77
2018-09-15T08:51:29.714Z,7.40
2018-09-15T08:53:56.942Z,7.87
2018-09-15T08:56:24.123Z,8.63
2018-09-15T08:58:51.619Z,7.27
2018-09-15T09:01:18.843Z,6.60
2018-09-15T09:03:46.167Z,6.47
2018-09-15T09:06:13.279Z,6.93
2018-09-15T09:08:41.251Z,7.70
2018-09-15T09:11:08.374Z,8.03
2018-09-15T09:13:35.530Z,7.10
2018-09-15T09:16:02.807Z,7.07
2018-09-15T09:18:30.015Z,7.73
2018-09-15T09:20:57.185Z,9.63
2018-09-15T09:23:24.556Z,8.43
2018-09-15T09:25:51.858Z,8.50
2018-09-15T09:28:19.042Z,9.03
2018-09-15T09:30:46.882Z,8.90
2018-09-15T09:33:14.044Z,7.73
2018-09-15T09:35:41.513Z,7.93
2018-09-15T09:38:08.739Z,8.18
2018-09-15T09:40:36.033Z,8.07
2018-09-15T09:43:03.301Z,7.97
2018-09-15T09:45:30.692Z,7.33
2018-09-15T09:47:58.176Z,7.70
2018-09-15T09:50:29.203Z,8.77
2018-09-15T09:52:56.470Z,8.40
2018-09-15T09:55:23.777Z,8.27
2018-09-15T09:57:51.102Z,7.10
2018-09-15T10:00:24.155Z,7.80
2018-09-15T10:02:51.357Z,7.43
2018-09-15T10:05:18.709Z,7.80
2018-09-15T10:07:45.955Z,6.87
2018-09-15T10:10:13.234Z,6.30
2018-09-15T10:12:40.462Z,6.53
2018-09-15T10:15:08.196Z,6.77
2018-09-15T10:17:35.670Z,6.70
2018-09-15T10:20:03.839Z,6.00
2018-09-15T10:22:31.064Z,5.70
2018-09-15T10:24:58.363Z,5.63
2018-09-15T10:27:25.533Z,4.50
2018-09-15T10:29:52.776Z,3.60
2018-09-15T10:32:19.910Z,3.43
2018-09-15T10:34:47.161Z,3.63
2018-09-15T10:37:14.387Z,3.53
2018-09-15T10:39:41.812Z,3.20
2018-09-15T10:42:09.616Z,3.07
2018-09-15T10:44:36.816Z,2.93
2018-09-15T10:47:04.082Z,2.80
2018-09-15T10:49:31.257Z,3.00
2018-09-15T10:51:58.561Z,2.47
2018-09-15T10:54:26.604Z,2.67
2018-09-15T10:56:54.085Z,2.43
2018-09-15T10:59:21.430Z,2.90
2018-09-15T11:01:48.701Z,3.00
2018-09-15T11:04:15.994Z,3.20
2018-09-15T11:06:43.374Z,3.50
2018-09-15T11:09:10.834Z,3.27
2018-09-15T11:11:38.278Z,3.30
2018-09-15T11:14:10.966Z,3.27
2018-09-15T11:16:38.526Z,3.33
2018-09-15T11:19:05.890Z,3.50
2018-09-15T11:21:33.263Z,3.10
2018-09-15T11:24:01.132Z,3.63
2018-09-15T11:26:28.571Z,3.83
2018-09-15T11:28:55.777Z,3.10
2018-09-15T11:31:22.993Z,2.90
2018-09-15T11:33:50.178Z,2.50
2018-09-15T11:36:17.325Z,2.30
2018-09-15T11:38:44.498Z,2.50
2018-09-15T11:41:11.825Z,2.20
2018-09-15T11:43:39.407Z,2.50
2018-09-15T11:46:06.637Z,2.07
2018-09-15T11:48:33.997Z,1.80
2018-09-15T11:51:01.180Z,2.17
2018-09-15T11:53:28.435Z,2.30
2018-09-15T11:55:55.652Z,2.70
2018-09-15T11:58:23.570Z,2.20
2018-09-15T12:00:54.047Z,2.27
2018-09-15T12:03:21.304Z,2.10
2018-09-15T12:05:48.662Z,1.83
2018-09-15T12:08:15.853Z,2.20
2018-09-15T12:10:43.191Z,2.00
2018-09-15T12:13:10.426Z,2.20
2018-09-15T12:15:37.591Z,1.90
2018-09-15T12:18:04.807Z,1.73
2018-09-15T12:20:32.109Z,2.50
2018-09-15T12:22:59.668Z,2.40
2018-09-15T12:25:26.850Z,2.23
2018-09-15T12:27:54.230Z,2.13
2018-09-15T12:30:21.379Z,2.00
2018-09-15T12:32:48.555Z,1.77
2018-09-15T12:35:15.801Z,1.57
2018-09-15T12:37:43.081Z,2.00
2018-09-15T12:40:10.262Z,2.50
2018-09-15T12:42:37.510Z,2.63
2018-09-15T12:45:05.003Z,1.97
2018-09-15T12:47:32.481Z,1.97
2018-09-15T12:49:59.651Z,1.90
2018-09-15T12:52:27.002Z,1.80
2018-09-15T12:54:54.145Z,1.60
2018-09-15T12:57:21.337Z,2.07
2018-09-15T12:59:48.550Z,1.80
2018-09-15T13:02:15.750Z,1.80
2018-09-15T13:04:43.773Z,2.00
2018-09-15T13:07:11.137Z,2.20
2018-09-15T13:09:40.594Z,2.10
2018-09-15T13:12:07.910Z,2.10
2018-09-15T13:14:35.233Z,1.50
2018-09-15T13:17:02.502Z,1.87
2018-09-15T13:19:29.713Z,1.80
2018-09-15T13:21:56.906Z,1.63
2018-09-15T13:24:24.192Z,1.97
2018-09-15T13:26:51.565Z,1.57
2018-09-15T13:29:19.467Z,1.27
2018-09-15T13:31:46.803Z,1.60
2018-09-15T13:34:14.064Z,1.33
2018-09-15T13:36:41.467Z,1.50
2018-09-15T13:39:10.508Z,1.10
2018-09-15T13:41:37.762Z,1.20
2018-09-15T13:44:05.930Z,1.27
2018-09-15T13:46:33.954Z,1.57
2018-09-15T13:49:01.413Z,1.40
2018-09-15T13:51:29.055Z,1.20
2018-09-15T13:53:56.360Z,1.40
2018-09-15T13:56:23.681Z,1.20
2018-09-15T13:58:51.065Z,1.60
2018-09-15T14:01:18.502Z,1.00
2018-09-15T14:03:46.608Z,7.43
2018-09-15T14:06:14.128Z,1.50
2018-09-15T14:08:41.364Z,1.77
2018-09-15T14:11:08.710Z,1.60
2018-09-15T14:13:36.139Z,1.23
2018-09-15T14:16:03.335Z,1.40
2018-09-15T14:18:30.639Z,1.33
2018-09-15T14:20:58.103Z,1.20
2018-09-15T14:23:25.511Z,1.30
2018-09-15T14:25:52.875Z,2.53
2018-09-15T14:28:20.051Z,1.70
2018-09-15T14:30:47.862Z,1.70
2018-09-15T14:33:15.094Z,1.00
2018-09-15T14:35:43.578Z,1.23
2018-09-15T14:38:10.869Z,1.00
2018-09-15T14:40:38.295Z,1.10
2018-09-15T14:43:06.098Z,1.33
2018-09-15T14:45:33.692Z,1.10
2018-09-15T14:48:01.322Z,0.90
2018-09-15T14:50:28.629Z,1.10
2018-09-15T14:52:56.014Z,1.73
2018-09-15T14:55:23.263Z,1.23
2018-09-15T14:57:50.444Z,1.33
2018-09-15T15:00:17.570Z,1.17
2018-09-15T15:02:49.367Z,1.10
2018-09-15T15:05:16.598Z,1.10
2018-09-15T15:07:43.844Z,1.30
2018-09-15T15:10:11.212Z,1.13
2018-09-15T15:12:38.464Z,1.47
2018-09-15T15:15:05.794Z,1.90
2018-09-15T15:17:33.031Z,1.37
2018-09-15T15:20:00.758Z,4.13
2018-09-15T15:22:28.070Z,3.20
2018-09-15T15:24:55.277Z,1.73
2018-09-15T15:27:22.526Z,2.97
2018-09-15T15:29:49.901Z,1.40
2018-09-15T15:32:17.270Z,1.50
2018-09-15T15:34:44.946Z,1.10
2018-09-15T15:37:12.226Z,1.70
2018-09-15T15:39:39.491Z,1.10
2018-09-15T15:42:06.672Z,1.10
2018-09-15T15:44:33.869Z,1.27
2018-09-15T15:47:01.229Z,1.30
2018-09-15T15:49:28.595Z,1.50
2018-09-15T15:51:55.907Z,1.20
2018-09-15T15:54:23.260Z,1.20
2018-09-15T15:56:50.561Z,1.33
2018-09-15T15:59:18.125Z,1.50
2018-09-15T16:01:45.553Z,1.20
2018-09-15T16:04:12.789Z,1.10
2018-09-15T16:06:39.973Z,1.20
2018-09-15T16:09:07.698Z,1.60
2018-09-15T16:11:35.190Z,1.50
2018-09-15T16:14:02.534Z,1.50
2018-09-15T16:16:29.773Z,1.50
2018-09-15T16:18:56.945Z,1.13
2018-09-15T16:21:24.170Z,4.10
2018-09-15T16:23:51.337Z,1.40
2018-09-15T16:26:18.873Z,1.30
2018-09-15T16:28:46.125Z,1.63
2018-09-15T16:31:13.333Z,1.97
2018-09-15T16:33:41.412Z,1.50
2018-09-15T16:36:09.394Z,1.20
2018-09-15T16:38:36.714Z,1.30
2018-09-15T16:41:04.315Z,1.47
2018-09-15T16:43:31.578Z,2.17
2018-09-15T16:45:58.840Z,1.40
2018-09-15T16:48:26.092Z,1.30
2018-09-15T16:50:53.333Z,2.07
2018-09-15T16:53:21.335Z,1.90
2018-09-15T16:55:48.700Z,2.00
2018-09-15T16:58:15.903Z,2.67
2018-09-15T17:00:43.062Z,2.00
2018-09-15T17:03:10.398Z,1.80
2018-09-15T17:05:37.577Z,1.47
2018-09-15T17:08:04.749Z,1.40
2018-09-15T17:10:31.957Z,1.60
2018-09-15T17:12:59.311Z,2.10
2018-09-15T17:15:26.570Z,2.80
2018-09-15T17:17:53.808Z,2.30
2018-09-15T17:20:21.180Z,2.50
2018-09-15T17:22:48.976Z,2.10
2018-09-15T17:25:16.331Z,2.50
2018-09-15T17:27:43.546Z,2.30
2018-09-15T17:30:10.897Z,3.47
2018-09-15T17:32:38.273Z,2.30
2018-09-15T17:35:05.485Z,3.43
2018-09-15T17:37:32.701Z,2.63
2018-09-15T17:40:00.047Z,2.77
2018-09-15T17:42:27.379Z,2.50
2018-09-15T17:44:54.503Z,1.97
2018-09-15T17:47:21.693Z,2.63
2018-09-15T17:49:48.826Z,2.60
2018-09-15T17:52:16.066Z,2.20
2018-09-15T17:54:43.388Z,2.67
2018-09-15T17:57:10.727Z,2.10
2018-09-15T17:59:38.038Z,2.50
2018-09-15T18:02:05.568Z,3.37
2018-09-15T18:04:32.772Z,2.80
2018-09-15T18:06:59.949Z,3.10
2018-09-15T18:09:27.377Z,3.03
2018-09-15T18:11:54.653Z,3.20
2018-09-15T18:14:22.758Z,2.90
2018-09-15T18:16:49.930Z,3.07
2018-09-15T18:19:17.117Z,2.57
2018-09-15T18:21:44.338Z,2.90
2018-09-15T18:24:11.571Z,3.13
2018-09-15T18:26:38.889Z,3.20
2018-09-15T18:29:06.118Z,3.20
2018-09-15T18:31:33.374Z,4.20
2018-09-15T18:34:00.787Z,3.83
2018-09-15T18:36:28.313Z,3.73
2018-09-15T18:38:56.112Z,3.40
2018-09-15T18:41:23.262Z,3.60
2018-09-15T18:43:50.472Z,3.70
2018-09-15T18:46:17.716Z,3.80
2018-09-15T18:48:44.955Z,3.27
2018-09-15T18:51:12.211Z,3.20
2018-09-15T18:53:39.398Z,3.17
2018-09-15T18:56:06.739Z,2.77
2018-09-15T18:58:34.198Z,3.70
2018-09-15T19:01:01.497Z,2.20
2018-09-15T19:03:28.734Z,2.87
2018-09-15T19:05:55.935Z,9.13
2018-09-15T19:08:23.086Z,2.30
2018-09-15T19:10:50.309Z,2.53
2018-09-15T19:13:17.953Z,2.70
2018-09-15T19:15:45.299Z,2.60
2018-09-15T19:18:12.485Z,2.83
2018-09-15T19:20:39.777Z,2.23
2018-09-15T19:23:06.934Z,2.27
2018-09-15T19:25:34.156Z,2.50
2018-09-15T19:28:01.405Z,2.20
2018-09-15T19:30:28.699Z,2.33
2018-09-15T19:32:55.941Z,2.00
2018-09-15T19:35:23.409Z,2.20
2018-09-15T19:37:50.704Z,3.00
2018-09-15T19:40:17.997Z,2.83
2018-09-15T19:42:46.601Z,2.73
2018-09-15T19:45:13.940Z,2.60
2018-09-15T19:47:41.172Z,5.00
2018-09-15T19:50:09.169Z,2.70
2018-09-15T19:52:36.422Z,2.60
2018-09-15T19:55:03.601Z,3.00
2018-09-15T19:57:30.822Z,3.30
2018-09-15T19:59:59.288Z,3.43
2018-09-15T20:02:26.502Z,3.10
2018-09-15T20:04:53.880Z,2.90
2018-09-15T20:07:21.042Z,2.60
2018-09-15T20:09:49.179Z,2.90
2018-09-15T20:12:16.419Z,2.30
2018-09-15T20:14:43.645Z,2.10
2018-09-15T20:17:09.896Z,2.10
2018-09-15T20:19:36.092Z,1.80
2018-09-15T20:22:03.325Z,2.30
2018-09-15T20:24:30.721Z,2.23
2018-09-15T20:26:57.919Z,1.87
2018-09-15T20:29:25.595Z,2.00
2018-09-15T20:31:52.804Z,3.00
2018-09-15T20:34:20.102Z,1.80
2018-09-15T20:36:47.321Z,1.60
2018-09-15T20:39:14.570Z,2.00
2018-09-15T20:41:41.862Z,1.77
2018-09-15T20:44:09.416Z,2.00
2018-09-15T20:46:36.670Z,2.10
2018-09-15T20:49:03.938Z,1.90
2018-09-15T20:51:31.074Z,2.00
2018-09-15T20:53:58.311Z,1.70
2018-09-15T20:56:25.577Z,2.10
2018-09-15T20:58:54.088Z,1.90
2018-09-15T21:01:21.738Z,1.80
2018-09-15T21:03:48.938Z,1.87
2018-09-15T21:06:16.212Z,1.83
2018-09-15T21:08:43.435Z,2.30
2018-09-15T21:11:11.994Z,2.10
2018-09-15T21:13:39.245Z,1.93
2018-09-15T21:16:06.790Z,2.13
2018-09-15T21:18:33.984Z,1.80
2018-09-15T21:21:01.215Z,11.53
2018-09-15T21:23:28.491Z,2.00
2018-09-15T21:25:55.892Z,2.13
2018-09-15T21:28:23.613Z,2.33
2018-09-15T21:30:50.793Z,2.23
2018-09-15T21:33:17.958Z,2.67
2018-09-15T21:35:45.189Z,2.13
2018-09-15T21:38:12.417Z,2.50
2018-09-15T21:40:39.737Z,2.20
2018-09-15T21:43:06.979Z,2.10
2018-09-15T21:45:34.159Z,2.00
2018-09-15T21:48:01.310Z,1.90
2018-09-15T21:50:28.601Z,2.00
2018-09-15T21:52:55.841Z,1.77
2018-09-15T21:55:23.178Z,1.80
2018-09-15T21:57:50.580Z,1.70
2018-09-15T22:00:18.369Z,1.90
2018-09-15T22:02:45.702Z,2.03
2018-09-15T22:05:12.926Z,2.00
2018-09-15T22:07:40.281Z,2.10
2018-09-15T22:10:07.490Z,2.20
2018-09-15T22:12:34.758Z,2.00
2018-09-15T22:15:02.035Z,1.90
2018-09-15T22:17:29.320Z,2.07
2018-09-15T22:19:56.555Z,2.27
2018-09-15T22:22:23.842Z,1.83
2018-09-15T22:24:50.953Z,2.10
2018-09-15T22:27:18.203Z,2.00
2018-09-15T22:29:45.485Z,2.60
2018-09-15T22:32:12.706Z,1.90
2018-09-15T22:34:39.961Z,2.10
2018-09-15T22:37:07.361Z,2.40
2018-09-15T22:39:34.560Z,2.80
2018-09-15T22:42:01.797Z,2.40
2018-09-15T22:44:29.133Z,2.07
2018-09-15T22:46:56.355Z,2.00
2018-09-15T22:49:23.614Z,1.90
2018-09-15T22:51:50.807Z,1.93
2018-09-15T22:54:17.981Z,2.30
2018-09-15T22:56:45.144Z,2.10
2018-09-15T22:59:12.321Z,2.23
2018-09-15T23:01:39.535Z,2.20
2018-09-15T23:04:08.964Z,2.10
2018-09-15T23:06:36.213Z,2.40
2018-09-15T23:09:04.598Z,2.27
2018-09-15T23:11:31.753Z,2.23
2018-09-15T23:13:59.088Z,2.20
2018-09-15T23:16:26.287Z,2.50
2018-09-15T23:18:53.490Z,2.03
2018-09-15T23:21:20.670Z,2.10
2018-09-15T23:23:48.114Z,2.60
2018-09-15T23:26:15.460Z,1.93
2018-09-15T23:28:42.667Z,2.10
2018-09-15T23:31:09.942Z,2.20
2018-09-15T23:33:37.140Z,1.80
2018-09-15T23:36:04.689Z,1.90
2018-09-15T23:38:32.214Z,2.17
2018-09-15T23:40:59.420Z,2.07
2018-09-15T23:43:26.570Z,2.10
2018-09-15T23:45:53.755Z,2.20
2018-09-15T23:48:20.897Z,2.20
2018-09-15T23:50:48.063Z,2.27
2018-09-15T23:53:15.310Z,2.10
2018-09-15T23:55:42.497Z,2.00
2018-09-15T23:58:09.637Z,1.97
